首页
METAR-TAF:

METAR-TAF

机场 :

McCall Municipal Airport

McCall, 爱达荷州, 美国

纬度: 44-53-00N, 经度: 116-05-58W, 海拔: 1530米

当前天气观测

该预报发布于1小时和6分钟前的15:51 UTC
静风
温度 13°C
湿度 47%
气压 1020 hPa
能見度: 16.1公里
天空无云

METAR: KMYL 201551Z AUTO 00000KT 10SM CLR 13/02 A3011 RMK AO2 SLP163 T01330022

时间: 10:57 (16:57 UTC)

预报

该预报发布于5小时和37分钟前的11:20 UTC
预报有效从20日的 12点(UTC)到 21日的 12点(UTC)
风速4节,风向多变
能見度: 10公里
天空无云
从 20日的 2000点(UTC)
风速10节,风向西北
能見度: 10公里
天空无云
从 21日的 0400点(UTC)
风速4节,风向多变
能見度: 10公里
天空无云

TAF: KMYL 201120Z 2012/2112 VRB04KT P6SM SKC FM202000 31010KT P6SM SKC FM210400 VRB04KT P6SM SKC

超过4000个机场的气象观测和天气预报(METAR&TAF报告)。

可查询的气象台以黄色和红色小点在地图上表示。

将鼠标移到小点上方,可查看气象台名称。

然后点击查看天气观测和预报。

如需切换地图:点击带黑十字的绿色按钮放大地图;点击带横线的绿色按钮缩小地图;或者点击绿色箭头查看邻近地区的地图。


METAR-TAF: